Aberdeen, SD

2:55 AM CDT on July 14, 2014 (GMT -0500)
Aberdeen Regional (KABR) Elev 1299 ft | 45.44 °N, 98.41 °W | Change Station
Active Advisory: Flood Warning

Current weather conditions updated 1 hour ago

Clear
Clear
52 °F
Feels Like 52 °F
N
9
Wind Variable Wind from NW

Today is forecast to be Much Cooler than yesterday.

Today
High -- | Low -- °F
--% Chance of Precip.
Yesterday
High -- | Low -- °F
Precip. -- in
5:58 AM 9:19 PM
Waning Gibbous, 95% visible
Pressure 30.03 in
Visibility 10.0 miles
Clouds Clear
Dew Point 47 °F
Humidity 83%
Rainfall 0.00 in
Snow Depth Not available.
UV 0 out of 12
Pollen 4.70 out of 12
Air Quality Not available.
Flu Activity Sporadic
METAR KABR 140653Z AUTO 32008KT 10SM CLR 11/08 A3003 RMK AO2 SLP167 T01110083

More Conditions Fewer Conditions

Pressure 30.03 in
Visibility 10.0 miles
Clouds Clear
Dew Point 47 °F
Humidity 83%
Rainfall 0.00 in
Snow Depth Not available.
UV 0 out of 12
Pollen 4.70 out of 12
Air Quality Not available.
Flu Activity Sporadic
METAR KABR 140653Z AUTO 32008KT 10SM CLR 11/08 A3003 RMK AO2 SLP167 T01110083

More Conditions Fewer Conditions

10-Day Weather Forecast

Almanac

Astronomy

Jul. 14, 2014 Rise Set
Actual Time 5:58 AM CDT 9:19 PM CDT
Civil Twilight 5:22 AM CDT 9:56 PM CDT
Nautical Twilight 4:34 AM CDT 10:43 PM CDT
Astronomical Twilight 3:34 AM CDT 11:43 PM CDT
Moon 10:38 PM CDT 8:53 AM CDT
Length of Visible Light 16h 33m
Length of Day
15h 21m
Tomorrow will be 1m 40s shorter.
Waning Gibbous, 95% of the Moon is Illuminated
Today
Waning Gibbous
Jul 18
Last Quarter
Jul 26
New
Aug 3
First Quarter
Aug 10
Full

Today's Extremes

State Highs State Lows

Community

WunderPhotos

Upload Photos

1,733,572 photos uploaded!

Nearby

Snow Depth

Station Depth Elevation
North Rapid Creek 0 in 6130 ft
Blind Park 0 in 6890 ft

Earthquake Activity

City Distance Mag. Time & Date
No recent earthquake activity has been reported nearby.
Minimum magnitude displayed is 2.5.

Coastal Water Temperatures

Place Temperature
No Stations Reporting

Nearby Weather Stations

Station Location Temp. Dew Point Humidity Wind Precip. Elev Updated Type
Simmons, Aberdeen, SD 54.7 °F 50 °F 85% NNW  at  5.3 mph - / hr 1312 ft 2:43 AM CDT Normal
Groton, SD 52.2 °F 48 °F 86% NW  at  2.0 mph 0.00 in / hr 1295 ft 2:42 AM CDT Normal
Willow Creek Lake, Frederick, SD 50.8 °F 48 °F 90% WNW  at  7.0 mph 0.00 in / hr 1411 ft 2:53 AM CDT Normal

Show More Stations Show Fewer Stations